WEATHER/FLIGHT PLANNING

Hattiesburg Radar

 

 

 

 

Weather Links

Flight Planning Links

 

METAR

2014/10/20 20:53 KHBG 202053Z AUTO VRB04KT 10SM CLR 25/08 A3001 RMK AO2 SLP161 T02500083 56017

TAF

2014/10/20 18:21 TAF KHBG 201720Z 2018/2118 34003KT P6SM SCT250